sensor_id;sensor_type;location;lat;lon;timestamp;P1;durP1;ratioP1;P2;durP2;ratioP2
26540;SDS011;14206;50.202;10.948;2022-09-16T00:00:32;4.75;;;2.72;;
26540;SDS011;14206;50.202;10.948;2022-09-16T00:03:00;2.15;;;2.00;;
26540;SDS011;14206;50.202;10.948;2022-09-16T00:05:27;2.30;;;2.10;;
26540;SDS011;14206;50.202;10.948;2022-09-16T00:07:54;3.55;;;2.53;;
26540;SDS011;14206;50.202;10.948;2022-09-16T00:10:22;4.20;;;2.33;;
26540;SDS011;14206;50.202;10.948;2022-09-16T00:12:49;3.58;;;2.72;;
26540;SDS011;14206;50.202;10.948;2022-09-16T00:15:16;4.63;;;2.67;;
26540;SDS011;14206;50.202;10.948;2022-09-16T00:17:43;4.50;;;2.88;;
26540;SDS011;14206;50.202;10.948;2022-09-16T00:20:10;3.78;;;2.58;;
26540;SDS011;14206;50.202;10.948;2022-09-16T00:22:37;3.08;;;2.67;;
26540;SDS011;14206;50.202;10.948;2022-09-16T00:25:04;2.97;;;2.42;;
26540;SDS011;14206;50.202;10.948;2022-09-16T00:27:31;4.18;;;2.47;;
26540;SDS011;14206;50.202;10.948;2022-09-16T00:29:59;3.47;;;2.45;;
26540;SDS011;14206;50.202;10.948;2022-09-16T00:32:25;3.00;;;2.15;;
26540;SDS011;14206;50.202;10.948;2022-09-16T00:34:52;1.77;;;1.67;;
26540;SDS011;14206;50.202;10.948;2022-09-16T00:37:19;2.83;;;2.50;;
26540;SDS011;14206;50.202;10.948;2022-09-16T00:39:49;3.17;;;2.30;;
26540;SDS011;14206;50.202;10.948;2022-09-16T00:42:17;3.42;;;2.40;;
26540;SDS011;14206;50.202;10.948;2022-09-16T00:47:19;2.83;;;2.50;;
26540;SDS011;14206;50.202;10.948;2022-09-16T00:50:16;3.10;;;2.58;;
26540;SDS011;14206;50.202;10.948;2022-09-16T00:52:52;3.08;;;2.35;;
26540;SDS011;14206;50.202;10.948;2022-09-16T00:55:24;3.45;;;2.63;;
26540;SDS011;14206;50.202;10.948;2022-09-16T00:57:54;2.83;;;2.63;;
26540;SDS011;14206;50.202;10.948;2022-09-16T01:00:24;3.13;;;2.80;;
26540;SDS011;14206;50.202;10.948;2022-09-16T01:02:53;2.47;;;2.28;;
26540;SDS011;14206;50.202;10.948;2022-09-16T01:05:20;3.63;;;2.30;;
26540;SDS011;14206;50.202;10.948;2022-09-16T01:07:52;2.78;;;2.20;;
26540;SDS011;14206;50.202;10.948;2022-09-16T01:10:21;3.20;;;2.40;;
26540;SDS011;14206;50.202;10.948;2022-09-16T01:12:53;3.22;;;2.13;;
26540;SDS011;14206;50.202;10.948;2022-09-16T01:15:26;3.20;;;2.17;;
26540;SDS011;14206;50.202;10.948;2022-09-16T01:18:18;2.95;;;2.53;;
26540;SDS011;14206;50.202;10.948;2022-09-16T01:29:19;3.35;;;2.10;;
26540;SDS011;14206;50.202;10.948;2022-09-16T01:31:54;3.03;;;2.38;;
26540;SDS011;14206;50.202;10.948;2022-09-16T01:34:37;4.03;;;2.45;;
26540;SDS011;14206;50.202;10.948;2022-09-16T01:37:14;3.15;;;2.35;;
26540;SDS011;14206;50.202;10.948;2022-09-16T01:45:57;5.45;;;2.50;;
26540;SDS011;14206;50.202;10.948;2022-09-16T01:48:38;2.22;;;1.95;;
26540;SDS011;14206;50.202;10.948;2022-09-16T01:51:12;2.30;;;2.00;;
26540;SDS011;14206;50.202;10.948;2022-09-16T01:59:21;1.92;;;1.67;;
26540;SDS011;14206;50.202;10.948;2022-09-16T02:04:29;2.08;;;1.98;;
26540;SDS011;14206;50.202;10.948;2022-09-16T02:07:01;2.50;;;2.10;;
26540;SDS011;14206;50.202;10.948;2022-09-16T02:09:38;2.90;;;2.40;;
26540;SDS011;14206;50.202;10.948;2022-09-16T02:12:09;2.65;;;2.13;;
26540;SDS011;14206;50.202;10.948;2022-09-16T02:14:42;3.20;;;2.47;;
26540;SDS011;14206;50.202;10.948;2022-09-16T02:17:14;3.33;;;2.22;;
26540;SDS011;14206;50.202;10.948;2022-09-16T02:19:55;2.58;;;1.80;;
26540;SDS011;14206;50.202;10.948;2022-09-16T02:22:36;1.80;;;1.70;;
26540;SDS011;14206;50.202;10.948;2022-09-16T02:25:10;2.10;;;1.90;;
26540;SDS011;14206;50.202;10.948;2022-09-16T02:27:39;2.13;;;1.67;;
26540;SDS011;14206;50.202;10.948;2022-09-16T02:30:08;3.10;;;1.90;;
26540;SDS011;14206;50.202;10.948;2022-09-16T02:32:41;2.10;;;1.58;;
26540;SDS011;14206;50.202;10.948;2022-09-16T02:35:13;3.42;;;1.70;;
26540;SDS011;14206;50.202;10.948;2022-09-16T02:40:19;2.65;;;1.80;;
26540;SDS011;14206;50.202;10.948;2022-09-16T02:42:50;2.17;;;1.80;;
26540;SDS011;14206;50.202;10.948;2022-09-16T02:45:19;1.70;;;1.60;;
26540;SDS011;14206;50.202;10.948;2022-09-16T02:48:05;2.67;;;1.80;;
26540;SDS011;14206;50.202;10.948;2022-09-16T02:51:17;3.30;;;2.50;;
26540;SDS011;14206;50.202;10.948;2022-09-16T02:54:12;2.85;;;2.60;;
26540;SDS011;14206;50.202;10.948;2022-09-16T02:56:48;4.22;;;2.97;;
26540;SDS011;14206;50.202;10.948;2022-09-16T02:59:15;2.03;;;1.83;;
26540;SDS011;14206;50.202;10.948;2022-09-16T03:01:44;4.43;;;2.80;;
26540;SDS011;14206;50.202;10.948;2022-09-16T03:04:13;4.53;;;2.83;;
26540;SDS011;14206;50.202;10.948;2022-09-16T03:06:42;5.40;;;2.80;;
26540;SDS011;14206;50.202;10.948;2022-09-16T03:09:10;3.80;;;2.72;;
26540;SDS011;14206;50.202;10.948;2022-09-16T03:20:15;3.70;;;2.97;;
26540;SDS011;14206;50.202;10.948;2022-09-16T03:23:15;4.95;;;3.28;;
26540;SDS011;14206;50.202;10.948;2022-09-16T03:26:09;5.68;;;2.63;;
26540;SDS011;14206;50.202;10.948;2022-09-16T03:32:16;3.87;;;3.00;;
26540;SDS011;14206;50.202;10.948;2022-09-16T03:37:21;5.60;;;3.63;;
26540;SDS011;14206;50.202;10.948;2022-09-16T03:39:51;4.07;;;3.10;;
26540;SDS011;14206;50.202;10.948;2022-09-16T03:42:21;5.22;;;3.10;;
26540;SDS011;14206;50.202;10.948;2022-09-16T03:44:48;5.55;;;3.20;;
26540;SDS011;14206;50.202;10.948;2022-09-16T03:47:15;6.20;;;3.17;;
26540;SDS011;14206;50.202;10.948;2022-09-16T03:49:42;4.80;;;3.17;;
26540;SDS011;14206;50.202;10.948;2022-09-16T03:52:10;4.65;;;3.13;;
26540;SDS011;14206;50.202;10.948;2022-09-16T03:54:37;6.18;;;2.83;;
26540;SDS011;14206;50.202;10.948;2022-09-16T03:57:04;4.18;;;2.60;;
26540;SDS011;14206;50.202;10.948;2022-09-16T03:59:31;3.20;;;2.45;;
26540;SDS011;14206;50.202;10.948;2022-09-16T04:01:58;3.85;;;2.83;;
26540;SDS011;14206;50.202;10.948;2022-09-16T04:04:25;7.85;;;3.20;;
26540;SDS011;14206;50.202;10.948;2022-09-16T04:06:52;4.75;;;2.80;;
26540;SDS011;14206;50.202;10.948;2022-09-16T04:09:19;4.82;;;2.80;;
26540;SDS011;14206;50.202;10.948;2022-09-16T04:11:46;4.03;;;2.72;;
26540;SDS011;14206;50.202;10.948;2022-09-16T04:14:13;3.47;;;2.53;;
26540;SDS011;14206;50.202;10.948;2022-09-16T04:16:40;4.28;;;3.05;;
26540;SDS011;14206;50.202;10.948;2022-09-16T04:19:11;3.80;;;2.63;;
26540;SDS011;14206;50.202;10.948;2022-09-16T04:21:39;3.65;;;2.72;;
26540;SDS011;14206;50.202;10.948;2022-09-16T04:24:07;6.20;;;3.17;;
26540;SDS011;14206;50.202;10.948;2022-09-16T04:26:39;4.72;;;2.80;;
26540;SDS011;14206;50.202;10.948;2022-09-16T04:29:06;4.53;;;2.63;;
26540;SDS011;14206;50.202;10.948;2022-09-16T04:31:36;2.78;;;2.35;;
26540;SDS011;14206;50.202;10.948;2022-09-16T04:34:03;3.80;;;2.45;;
26540;SDS011;14206;50.202;10.948;2022-09-16T04:36:30;2.80;;;2.25;;
26540;SDS011;14206;50.202;10.948;2022-09-16T04:38:57;2.80;;;2.08;;
26540;SDS011;14206;50.202;10.948;2022-09-16T04:41:25;5.25;;;2.20;;
26540;SDS011;14206;50.202;10.948;2022-09-16T04:43:53;3.13;;;2.28;;
26540;SDS011;14206;50.202;10.948;2022-09-16T04:46:22;3.97;;;2.15;;
26540;SDS011;14206;50.202;10.948;2022-09-16T04:48:50;2.15;;;1.92;;
26540;SDS011;14206;50.202;10.948;2022-09-16T04:51:18;4.97;;;2.28;;
26540;SDS011;14206;50.202;10.948;2022-09-16T04:53:47;2.92;;;2.00;;
26540;SDS011;14206;50.202;10.948;2022-09-16T04:56:16;3.35;;;2.45;;
26540;SDS011;14206;50.202;10.948;2022-09-16T04:58:46;2.92;;;1.85;;
26540;SDS011;14206;50.202;10.948;2022-09-16T05:01:16;2.70;;;1.75;;
26540;SDS011;14206;50.202;10.948;2022-09-16T05:03:51;3.28;;;1.80;;
26540;SDS011;14206;50.202;10.948;2022-09-16T05:06:23;4.72;;;2.17;;
26540;SDS011;14206;50.202;10.948;2022-09-16T05:08:55;6.80;;;2.60;;
26540;SDS011;14206;50.202;10.948;2022-09-16T05:11:23;3.40;;;2.47;;
26540;SDS011;14206;50.202;10.948;2022-09-16T05:13:53;3.65;;;2.00;;
26540;SDS011;14206;50.202;10.948;2022-09-16T05:16:21;1.48;;;1.35;;
26540;SDS011;14206;50.202;10.948;2022-09-16T05:18:49;2.72;;;1.75;;
26540;SDS011;14206;50.202;10.948;2022-09-16T05:21:19;2.65;;;1.80;;
26540;SDS011;14206;50.202;10.948;2022-09-16T05:23:47;2.78;;;1.70;;
26540;SDS011;14206;50.202;10.948;2022-09-16T05:26:19;3.20;;;2.15;;
26540;SDS011;14206;50.202;10.948;2022-09-16T05:28:46;2.15;;;1.73;;
26540;SDS011;14206;50.202;10.948;2022-09-16T05:31:17;3.05;;;1.90;;
26540;SDS011;14206;50.202;10.948;2022-09-16T05:33:53;2.40;;;1.40;;
26540;SDS011;14206;50.202;10.948;2022-09-16T05:36:20;3.60;;;1.83;;
26540;SDS011;14206;50.202;10.948;2022-09-16T05:38:47;2.25;;;1.60;;
26540;SDS011;14206;50.202;10.948;2022-09-16T05:41:34;2.97;;;1.67;;
26540;SDS011;14206;50.202;10.948;2022-09-16T05:44:01;3.40;;;2.10;;
26540;SDS011;14206;50.202;10.948;2022-09-16T05:46:29;4.68;;;1.70;;
26540;SDS011;14206;50.202;10.948;2022-09-16T05:48:56;2.65;;;1.80;;
26540;SDS011;14206;50.202;10.948;2022-09-16T05:51:23;2.05;;;1.70;;
26540;SDS011;14206;50.202;10.948;2022-09-16T05:53:51;2.47;;;1.50;;
26540;SDS011;14206;50.202;10.948;2022-09-16T05:56:22;2.88;;;1.98;;
26540;SDS011;14206;50.202;10.948;2022-09-16T05:58:51;1.88;;;1.40;;
26540;SDS011;14206;50.202;10.948;2022-09-16T06:01:21;2.83;;;1.45;;
26540;SDS011;14206;50.202;10.948;2022-09-16T06:03:50;2.67;;;1.63;;
26540;SDS011;14206;50.202;10.948;2022-09-16T06:08:49;2.92;;;1.85;;
26540;SDS011;14206;50.202;10.948;2022-09-16T06:11:17;2.63;;;1.60;;
26540;SDS011;14206;50.202;10.948;2022-09-16T06:13:45;3.05;;;1.50;;
26540;SDS011;14206;50.202;10.948;2022-09-16T06:16:12;2.72;;;1.60;;
26540;SDS011;14206;50.202;10.948;2022-09-16T06:18:40;2.10;;;1.50;;
26540;SDS011;14206;50.202;10.948;2022-09-16T06:21:07;1.83;;;1.40;;
26540;SDS011;14206;50.202;10.948;2022-09-16T06:23:36;2.97;;;1.33;;
26540;SDS011;14206;50.202;10.948;2022-09-16T06:26:05;2.03;;;1.42;;
26540;SDS011;14206;50.202;10.948;2022-09-16T06:28:51;2.13;;;1.20;;
26540;SDS011;14206;50.202;10.948;2022-09-16T06:31:20;1.65;;;1.48;;
26540;SDS011;14206;50.202;10.948;2022-09-16T06:33:52;1.35;;;1.20;;
26540;SDS011;14206;50.202;10.948;2022-09-16T06:36:21;1.63;;;1.25;;
26540;SDS011;14206;50.202;10.948;2022-09-16T06:38:49;1.65;;;1.33;;
26540;SDS011;14206;50.202;10.948;2022-09-16T06:41:17;2.97;;;1.38;;
26540;SDS011;14206;50.202;10.948;2022-09-16T06:43:45;1.73;;;1.13;;
26540;SDS011;14206;50.202;10.948;2022-09-16T06:46:15;2.78;;;1.50;;
26540;SDS011;14206;50.202;10.948;2022-09-16T06:48:46;2.67;;;1.23;;
26540;SDS011;14206;50.202;10.948;2022-09-16T06:51:18;1.77;;;1.50;;
26540;SDS011;14206;50.202;10.948;2022-09-16T06:53:50;2.58;;;1.45;;
26540;SDS011;14206;50.202;10.948;2022-09-16T06:56:19;2.70;;;1.20;;
26540;SDS011;14206;50.202;10.948;2022-09-16T06:58:47;2.92;;;1.30;;
26540;SDS011;14206;50.202;10.948;2022-09-16T07:01:19;2.55;;;1.27;;
26540;SDS011;14206;50.202;10.948;2022-09-16T07:03:49;3.08;;;1.30;;
26540;SDS011;14206;50.202;10.948;2022-09-16T07:06:17;2.83;;;1.23;;
26540;SDS011;14206;50.202;10.948;2022-09-16T07:08:45;2.38;;;1.40;;
26540;SDS011;14206;50.202;10.948;2022-09-16T07:11:14;1.40;;;1.08;;
26540;SDS011;14206;50.202;10.948;2022-09-16T07:13:44;3.70;;;1.38;;
26540;SDS011;14206;50.202;10.948;2022-09-16T07:16:22;1.42;;;0.90;;
26540;SDS011;14206;50.202;10.948;2022-09-16T07:18:53;1.00;;;0.75;;
26540;SDS011;14206;50.202;10.948;2022-09-16T07:21:26;2.03;;;1.17;;
26540;SDS011;14206;50.202;10.948;2022-09-16T07:23:59;1.60;;;0.90;;
26540;SDS011;14206;50.202;10.948;2022-09-16T07:26:28;1.30;;;0.98;;
26540;SDS011;14206;50.202;10.948;2022-09-16T07:29:00;0.95;;;0.80;;
26540;SDS011;14206;50.202;10.948;2022-09-16T07:31:30;1.58;;;0.90;;
26540;SDS011;14206;50.202;10.948;2022-09-16T07:33:59;3.45;;;1.00;;
26540;SDS011;14206;50.202;10.948;2022-09-16T07:36:31;1.30;;;0.90;;
26540;SDS011;14206;50.202;10.948;2022-09-16T07:39:00;2.58;;;0.98;;
26540;SDS011;14206;50.202;10.948;2022-09-16T07:41:28;0.70;;;0.60;;
26540;SDS011;14206;50.202;10.948;2022-09-16T07:43:58;2.05;;;0.80;;
26540;SDS011;14206;50.202;10.948;2022-09-16T07:46:26;0.77;;;0.60;;
26540;SDS011;14206;50.202;10.948;2022-09-16T07:48:56;1.95;;;0.60;;
26540;SDS011;14206;50.202;10.948;2022-09-16T07:51:25;2.85;;;0.90;;
26540;SDS011;14206;50.202;10.948;2022-09-16T07:53:57;0.77;;;0.60;;
26540;SDS011;14206;50.202;10.948;2022-09-16T07:56:30;1.05;;;0.70;;
26540;SDS011;14206;50.202;10.948;2022-09-16T07:59:00;1.25;;;0.73;;
26540;SDS011;14206;50.202;10.948;2022-09-16T08:01:27;1.33;;;0.77;;
26540;SDS011;14206;50.202;10.948;2022-09-16T08:03:56;0.95;;;0.50;;
26540;SDS011;14206;50.202;10.948;2022-09-16T08:06:24;0.68;;;0.65;;
26540;SDS011;14206;50.202;10.948;2022-09-16T08:08:54;2.90;;;0.70;;
26540;SDS011;14206;50.202;10.948;2022-09-16T08:11:35;1.83;;;0.70;;
26540;SDS011;14206;50.202;10.948;2022-09-16T08:14:02;1.08;;;0.60;;
26540;SDS011;14206;50.202;10.948;2022-09-16T08:16:29;1.63;;;0.77;;
26540;SDS011;14206;50.202;10.948;2022-09-16T08:18:56;0.80;;;0.50;;
26540;SDS011;14206;50.202;10.948;2022-09-16T08:21:25;1.70;;;0.70;;
26540;SDS011;14206;50.202;10.948;2022-09-16T08:23:54;1.50;;;0.50;;
26540;SDS011;14206;50.202;10.948;2022-09-16T08:26:22;0.50;;;0.45;;
26540;SDS011;14206;50.202;10.948;2022-09-16T08:28:49;0.63;;;0.40;;
26540;SDS011;14206;50.202;10.948;2022-09-16T08:31:33;1.42;;;0.63;;
26540;SDS011;14206;50.202;10.948;2022-09-16T08:34:00;1.65;;;0.60;;
26540;SDS011;14206;50.202;10.948;2022-09-16T08:36:27;1.58;;;0.65;;
26540;SDS011;14206;50.202;10.948;2022-09-16T08:38:54;0.95;;;0.43;;
26540;SDS011;14206;50.202;10.948;2022-09-16T08:44:16;0.50;;;0.50;;
26540;SDS011;14206;50.202;10.948;2022-09-16T08:46:54;1.75;;;0.70;;
26540;SDS011;14206;50.202;10.948;2022-09-16T08:49:35;1.15;;;0.63;;
26540;SDS011;14206;50.202;10.948;2022-09-16T08:52:26;2.17;;;0.60;;
26540;SDS011;14206;50.202;10.948;2022-09-16T08:57:31;0.95;;;0.50;;
26540;SDS011;14206;50.202;10.948;2022-09-16T09:00:05;0.50;;;0.32;;
26540;SDS011;14206;50.202;10.948;2022-09-16T09:02:50;1.05;;;0.40;;
26540;SDS011;14206;50.202;10.948;2022-09-16T09:05:44;1.65;;;0.60;;
26540;SDS011;14206;50.202;10.948;2022-09-16T09:21:58;0.77;;;0.52;;
26540;SDS011;14206;50.202;10.948;2022-09-16T09:30:21;2.05;;;0.98;;
26540;SDS011;14206;50.202;10.948;2022-09-16T09:40:52;0.60;;;0.50;;
26540;SDS011;14206;50.202;10.948;2022-09-16T09:51:31;1.08;;;0.40;;
26540;SDS011;14206;50.202;10.948;2022-09-16T09:54:18;0.55;;;0.20;;
26540;SDS011;14206;50.202;10.948;2022-09-16T09:56:52;0.30;;;0.30;;
26540;SDS011;14206;50.202;10.948;2022-09-16T10:02:13;1.98;;;0.50;;
26540;SDS011;14206;50.202;10.948;2022-09-16T10:04:42;1.42;;;0.60;;
26540;SDS011;14206;50.202;10.948;2022-09-16T10:07:13;0.47;;;0.30;;
26540;SDS011;14206;50.202;10.948;2022-09-16T10:09:48;0.93;;;0.43;;
26540;SDS011;14206;50.202;10.948;2022-09-16T10:12:32;1.20;;;0.60;;
26540;SDS011;14206;50.202;10.948;2022-09-16T10:15:00;0.77;;;0.40;;
26540;SDS011;14206;50.202;10.948;2022-09-16T10:17:29;1.65;;;0.68;;
26540;SDS011;14206;50.202;10.948;2022-09-16T10:20:02;2.17;;;0.70;;
26540;SDS011;14206;50.202;10.948;2022-09-16T10:22:33;0.57;;;0.40;;
26540;SDS011;14206;50.202;10.948;2022-09-16T10:25:01;0.90;;;0.63;;
26540;SDS011;14206;50.202;10.948;2022-09-16T10:27:33;0.90;;;0.45;;
26540;SDS011;14206;50.202;10.948;2022-09-16T10:30:03;1.02;;;0.40;;
26540;SDS011;14206;50.202;10.948;2022-09-16T10:35:30;0.38;;;0.30;;
26540;SDS011;14206;50.202;10.948;2022-09-16T10:38:00;0.90;;;0.40;;
26540;SDS011;14206;50.202;10.948;2022-09-16T10:40:30;1.08;;;0.30;;
26540;SDS011;14206;50.202;10.948;2022-09-16T10:43:02;0.30;;;0.28;;
26540;SDS011;14206;50.202;10.948;2022-09-16T10:45:51;2.00;;;0.60;;
26540;SDS011;14206;50.202;10.948;2022-09-16T10:48:19;2.50;;;0.68;;
26540;SDS011;14206;50.202;10.948;2022-09-16T10:50:52;0.85;;;0.60;;
26540;SDS011;14206;50.202;10.948;2022-09-16T10:53:39;0.90;;;0.55;;
26540;SDS011;14206;50.202;10.948;2022-09-16T10:56:18;0.88;;;0.50;;
26540;SDS011;14206;50.202;10.948;2022-09-16T10:58:46;1.08;;;0.45;;
26540;SDS011;14206;50.202;10.948;2022-09-16T11:14:38;3.45;;;1.02;;
26540;SDS011;14206;50.202;10.948;2022-09-16T11:17:26;1.38;;;0.70;;
26540;SDS011;14206;50.202;10.948;2022-09-16T11:28:40;1.40;;;0.65;;
26540;SDS011;14206;50.202;10.948;2022-09-16T11:31:39;1.02;;;0.40;;
26540;SDS011;14206;50.202;10.948;2022-09-16T11:45:22;1.75;;;0.60;;
26540;SDS011;14206;50.202;10.948;2022-09-16T11:48:20;1.25;;;0.70;;
26540;SDS011;14206;50.202;10.948;2022-09-16T11:50:56;2.15;;;0.60;;
26540;SDS011;14206;50.202;10.948;2022-09-16T12:04:12;1.10;;;0.90;;
26540;SDS011;14206;50.202;10.948;2022-09-16T12:09:41;0.60;;;0.60;;
26540;SDS011;14206;50.202;10.948;2022-09-16T12:12:17;0.93;;;0.68;;
26540;SDS011;14206;50.202;10.948;2022-09-16T12:14:52;1.67;;;0.80;;
26540;SDS011;14206;50.202;10.948;2022-09-16T12:17:32;2.00;;;0.98;;
26540;SDS011;14206;50.202;10.948;2022-09-16T12:20:18;1.42;;;0.90;;
26540;SDS011;14206;50.202;10.948;2022-09-16T12:28:25;1.23;;;0.65;;
26540;SDS011;14206;50.202;10.948;2022-09-16T12:31:02;1.77;;;0.60;;
26540;SDS011;14206;50.202;10.948;2022-09-16T12:33:39;0.82;;;0.60;;
26540;SDS011;14206;50.202;10.948;2022-09-16T12:36:23;1.77;;;0.60;;
26540;SDS011;14206;50.202;10.948;2022-09-16T12:38:56;0.50;;;0.50;;
26540;SDS011;14206;50.202;10.948;2022-09-16T12:41:34;0.47;;;0.47;;
26540;SDS011;14206;50.202;10.948;2022-09-16T12:45:26;0.98;;;0.68;;
26540;SDS011;14206;50.202;10.948;2022-09-16T13:01:31;0.90;;;0.50;;
26540;SDS011;14206;50.202;10.948;2022-09-16T13:06:45;1.92;;;0.70;;
26540;SDS011;14206;50.202;10.948;2022-09-16T13:09:21;1.20;;;0.57;;
26540;SDS011;14206;50.202;10.948;2022-09-16T13:14:43;0.77;;;0.30;;
26540;SDS011;14206;50.202;10.948;2022-09-16T13:17:12;0.77;;;0.50;;
26540;SDS011;14206;50.202;10.948;2022-09-16T13:19:48;1.13;;;0.47;;
26540;SDS011;14206;50.202;10.948;2022-09-16T13:22:25;1.10;;;0.60;;
26540;SDS011;14206;50.202;10.948;2022-09-16T13:30:53;1.20;;;0.45;;
26540;SDS011;14206;50.202;10.948;2022-09-16T13:33:22;0.82;;;0.63;;
26540;SDS011;14206;50.202;10.948;2022-09-16T13:36:01;2.80;;;0.50;;
26540;SDS011;14206;50.202;10.948;2022-09-16T13:38:38;0.52;;;0.35;;
26540;SDS011;14206;50.202;10.948;2022-09-16T13:41:11;0.30;;;0.30;;
26540;SDS011;14206;50.202;10.948;2022-09-16T13:46:12;1.77;;;0.63;;
26540;SDS011;14206;50.202;10.948;2022-09-16T13:54:53;0.40;;;0.40;;
26540;SDS011;14206;50.202;10.948;2022-09-16T13:57:26;0.30;;;0.30;;
26540;SDS011;14206;50.202;10.948;2022-09-16T14:00:21;0.60;;;0.40;;
26540;SDS011;14206;50.202;10.948;2022-09-16T14:08:26;0.50;;;0.30;;
26540;SDS011;14206;50.202;10.948;2022-09-16T14:11:13;0.20;;;0.20;;
26540;SDS011;14206;50.202;10.948;2022-09-16T14:13:51;0.30;;;0.30;;
26540;SDS011;14206;50.202;10.948;2022-09-16T14:16:32;0.30;;;0.30;;
26540;SDS011;14206;50.202;10.948;2022-09-16T14:21:30;0.40;;;0.40;;
26540;SDS011;14206;50.202;10.948;2022-09-16T14:24:12;0.30;;;0.30;;
26540;SDS011;14206;50.202;10.948;2022-09-16T14:26:52;0.50;;;0.40;;
26540;SDS011;14206;50.202;10.948;2022-09-16T14:29:21;0.70;;;0.60;;
26540;SDS011;14206;50.202;10.948;2022-09-16T14:31:50;0.50;;;0.40;;
26540;SDS011;14206;50.202;10.948;2022-09-16T14:34:24;0.40;;;0.40;;
26540;SDS011;14206;50.202;10.948;2022-09-16T14:36:54;0.50;;;0.45;;
26540;SDS011;14206;50.202;10.948;2022-09-16T14:39:22;0.55;;;0.50;;
26540;SDS011;14206;50.202;10.948;2022-09-16T14:44:23;1.40;;;0.40;;
26540;SDS011;14206;50.202;10.948;2022-09-16T14:47:20;0.88;;;0.38;;
26540;SDS011;14206;50.202;10.948;2022-09-16T14:50:19;0.77;;;0.50;;
26540;SDS011;14206;50.202;10.948;2022-09-16T14:52:54;0.82;;;0.50;;
26540;SDS011;14206;50.202;10.948;2022-09-16T14:55:26;0.40;;;0.40;;
26540;SDS011;14206;50.202;10.948;2022-09-16T14:57:56;0.50;;;0.50;;
26540;SDS011;14206;50.202;10.948;2022-09-16T15:00:27;0.60;;;0.50;;
26540;SDS011;14206;50.202;10.948;2022-09-16T15:03:03;0.40;;;0.40;;
26540;SDS011;14206;50.202;10.948;2022-09-16T15:05:49;0.60;;;0.60;;
26540;SDS011;14206;50.202;10.948;2022-09-16T15:11:21;0.52;;;0.50;;
26540;SDS011;14206;50.202;10.948;2022-09-16T15:14:12;1.75;;;0.40;;
26540;SDS011;14206;50.202;10.948;2022-09-16T15:16:49;0.60;;;0.60;;
26540;SDS011;14206;50.202;10.948;2022-09-16T15:19:20;1.40;;;0.60;;
26540;SDS011;14206;50.202;10.948;2022-09-16T15:21:50;1.15;;;0.40;;
26540;SDS011;14206;50.202;10.948;2022-09-16T15:24:28;0.82;;;0.50;;
26540;SDS011;14206;50.202;10.948;2022-09-16T15:26:57;0.55;;;0.45;;
26540;SDS011;14206;50.202;10.948;2022-09-16T15:29:27;0.60;;;0.50;;
26540;SDS011;14206;50.202;10.948;2022-09-16T15:34:43;1.52;;;0.75;;
26540;SDS011;14206;50.202;10.948;2022-09-16T15:37:27;0.73;;;0.70;;
26540;SDS011;14206;50.202;10.948;2022-09-16T15:40:06;1.27;;;0.90;;
26540;SDS011;14206;50.202;10.948;2022-09-16T15:43:02;1.13;;;0.80;;
26540;SDS011;14206;50.202;10.948;2022-09-16T15:45:31;0.83;;;0.73;;
26540;SDS011;14206;50.202;10.948;2022-09-16T15:50:53;0.70;;;0.68;;
26540;SDS011;14206;50.202;10.948;2022-09-16T15:53:23;0.80;;;0.75;;
26540;SDS011;14206;50.202;10.948;2022-09-16T15:58:36;0.93;;;0.80;;
26540;SDS011;14206;50.202;10.948;2022-09-16T16:01:14;1.42;;;0.88;;
26540;SDS011;14206;50.202;10.948;2022-09-16T16:06:15;0.50;;;0.50;;
26540;SDS011;14206;50.202;10.948;2022-09-16T16:11:17;0.40;;;0.40;;
26540;SDS011;14206;50.202;10.948;2022-09-16T16:13:46;0.45;;;0.40;;
26540;SDS011;14206;50.202;10.948;2022-09-16T16:16:16;1.08;;;0.50;;
26540;SDS011;14206;50.202;10.948;2022-09-16T16:18:44;0.50;;;0.50;;
26540;SDS011;14206;50.202;10.948;2022-09-16T16:21:13;0.50;;;0.50;;
26540;SDS011;14206;50.202;10.948;2022-09-16T16:23:41;0.90;;;0.57;;
26540;SDS011;14206;50.202;10.948;2022-09-16T16:26:09;0.60;;;0.60;;
26540;SDS011;14206;50.202;10.948;2022-09-16T16:28:36;0.50;;;0.50;;
26540;SDS011;14206;50.202;10.948;2022-09-16T16:31:11;0.60;;;0.60;;
26540;SDS011;14206;50.202;10.948;2022-09-16T16:33:41;0.50;;;0.50;;
26540;SDS011;14206;50.202;10.948;2022-09-16T16:36:13;0.40;;;0.40;;
26540;SDS011;14206;50.202;10.948;2022-09-16T16:38:41;0.60;;;0.60;;
26540;SDS011;14206;50.202;10.948;2022-09-16T16:41:09;0.47;;;0.47;;
26540;SDS011;14206;50.202;10.948;2022-09-16T16:43:38;1.58;;;0.70;;
26540;SDS011;14206;50.202;10.948;2022-09-16T16:46:05;1.08;;;0.80;;
26540;SDS011;14206;50.202;10.948;2022-09-16T16:48:32;0.90;;;0.90;;
26540;SDS011;14206;50.202;10.948;2022-09-16T16:51:00;2.55;;;1.00;;
26540;SDS011;14206;50.202;10.948;2022-09-16T16:53:30;0.90;;;0.90;;
26540;SDS011;14206;50.202;10.948;2022-09-16T16:58:40;2.03;;;1.30;;
26540;SDS011;14206;50.202;10.948;2022-09-16T17:01:14;1.75;;;1.05;;
26540;SDS011;14206;50.202;10.948;2022-09-16T17:03:43;1.20;;;1.10;;
26540;SDS011;14206;50.202;10.948;2022-09-16T17:06:11;1.35;;;1.20;;
26540;SDS011;14206;50.202;10.948;2022-09-16T17:08:39;1.77;;;1.13;;
26540;SDS011;14206;50.202;10.948;2022-09-16T17:13:36;1.10;;;1.00;;
26540;SDS011;14206;50.202;10.948;2022-09-16T17:16:08;1.70;;;1.05;;
26540;SDS011;14206;50.202;10.948;2022-09-16T17:18:37;1.85;;;0.95;;
26540;SDS011;14206;50.202;10.948;2022-09-16T17:21:12;0.95;;;0.73;;
26540;SDS011;14206;50.202;10.948;2022-09-16T17:23:41;1.90;;;0.90;;
26540;SDS011;14206;50.202;10.948;2022-09-16T17:26:08;0.80;;;0.80;;
26540;SDS011;14206;50.202;10.948;2022-09-16T17:28:36;0.73;;;0.73;;
26540;SDS011;14206;50.202;10.948;2022-09-16T17:31:14;0.60;;;0.60;;
26540;SDS011;14206;50.202;10.948;2022-09-16T17:33:42;0.55;;;0.55;;
26540;SDS011;14206;50.202;10.948;2022-09-16T17:36:11;0.50;;;0.50;;
26540;SDS011;14206;50.202;10.948;2022-09-16T17:38:39;0.50;;;0.50;;
26540;SDS011;14206;50.202;10.948;2022-09-16T17:41:07;0.40;;;0.40;;
26540;SDS011;14206;50.202;10.948;2022-09-16T17:43:35;1.05;;;0.70;;
26540;SDS011;14206;50.202;10.948;2022-09-16T17:46:04;1.42;;;0.70;;
26540;SDS011;14206;50.202;10.948;2022-09-16T17:48:32;0.57;;;0.57;;
26540;SDS011;14206;50.202;10.948;2022-09-16T17:51:01;0.60;;;0.60;;
26540;SDS011;14206;50.202;10.948;2022-09-16T17:53:28;0.70;;;0.70;;
26540;SDS011;14206;50.202;10.948;2022-09-16T17:56:05;0.70;;;0.70;;
26540;SDS011;14206;50.202;10.948;2022-09-16T17:58:34;0.73;;;0.60;;
26540;SDS011;14206;50.202;10.948;2022-09-16T18:01:11;0.70;;;0.70;;
26540;SDS011;14206;50.202;10.948;2022-09-16T18:03:39;0.60;;;0.60;;
26540;SDS011;14206;50.202;10.948;2022-09-16T18:06:24;0.80;;;0.70;;
26540;SDS011;14206;50.202;10.948;2022-09-16T18:08:53;1.10;;;1.00;;
26540;SDS011;14206;50.202;10.948;2022-09-16T18:11:21;1.35;;;1.00;;
26540;SDS011;14206;50.202;10.948;2022-09-16T18:13:52;0.90;;;0.90;;
26540;SDS011;14206;50.202;10.948;2022-09-16T18:16:20;1.23;;;1.00;;
26540;SDS011;14206;50.202;10.948;2022-09-16T18:18:54;1.48;;;1.20;;
26540;SDS011;14206;50.202;10.948;2022-09-16T18:21:23;1.40;;;1.30;;
26540;SDS011;14206;50.202;10.948;2022-09-16T18:23:51;1.10;;;1.00;;
26540;SDS011;14206;50.202;10.948;2022-09-16T18:26:20;1.20;;;1.10;;
26540;SDS011;14206;50.202;10.948;2022-09-16T18:28:47;1.50;;;1.27;;
26540;SDS011;14206;50.202;10.948;2022-09-16T18:31:35;1.30;;;1.20;;
26540;SDS011;14206;50.202;10.948;2022-09-16T18:34:03;1.33;;;1.13;;